Time;durP1;ratioP1;P1;durP2;ratioP2;P2;SDS_P1;SDS_P2;PMS_P1;PMS_P2;Temp;Humidity;BMP_temperature;BMP_pressure;BME280_temperature;BME280_humidity;BME280_pressure;Samples;Min_cycle;Max_cycle;Signal;HPM_P1;HPM_P2
2024/03/08 00:01:00;;;;;;;3.03;2.80;;;21.60;68.10;;;;;;4985697;28;20908;-66
2024/03/08 00:03:26;;;;;;;2.27;1.80;;;22.00;69.70;;;;;;4981033;28;20193;-66
2024/03/08 00:05:55;;;;;;;1.67;1.57;;;21.70;68.70;;;;;;4980366;28;20847;-66
2024/03/08 00:08:22;;;;;;;2.23;2.00;;;21.90;69.70;;;;;;4984391;28;20478;-66
2024/03/08 00:10:49;;;;;;;2.40;2.20;;;21.70;68.10;;;;;;4981102;28;20822;-64
2024/03/08 00:13:16;;;;;;;3.65;2.30;;;21.60;68.30;;;;;;4984889;28;20475;-65
2024/03/08 00:15:42;;;;;;;2.70;2.50;;;21.80;68.70;;;;;;4988169;28;20204;-65
2024/03/08 00:18:10;;;;;;;2.60;2.40;;;21.70;69.50;;;;;;4991404;28;20471;-64
2024/03/08 00:20:37;;;;;;;2.58;2.28;;;21.60;68.60;;;;;;4981329;28;20204;-64
2024/03/08 00:23:05;;;;;;;2.40;2.10;;;21.60;71.10;;;;;;4983645;28;20204;-64
2024/03/08 00:25:31;;;;;;;1.95;1.65;;;21.60;68.80;;;;;;4983072;28;20205;-65
2024/03/08 00:27:59;;;;;;;3.22;2.45;;;21.50;68.60;;;;;;4983248;28;20203;-64
2024/03/08 00:30:26;;;;;;;2.03;1.83;;;21.60;69.30;;;;;;4983408;28;20295;-65
2024/03/08 00:32:53;;;;;;;2.63;2.40;;;21.50;68.30;;;;;;4977126;28;20224;-66
2024/03/08 00:35:20;;;;;;;2.47;2.27;;;21.50;69.40;;;;;;4980137;28;20463;-64
2024/03/08 00:37:47;;;;;;;2.88;2.35;;;21.50;69.00;;;;;;4981853;28;20460;-64
2024/03/08 00:40:15;;;;;;;2.78;2.45;;;21.90;68.90;;;;;;4975928;28;20199;-66
2024/03/08 00:42:43;;;;;;;2.33;2.13;;;21.50;69.10;;;;;;4973743;28;20400;-65
2024/03/08 00:45:11;;;;;;;2.63;2.40;;;21.50;68.70;;;;;;4981489;28;20347;-66
2024/03/08 00:47:37;;;;;;;2.53;2.33;;;21.40;70.70;;;;;;4979151;28;20201;-64
2024/03/08 00:50:05;;;;;;;2.22;2.00;;;21.40;68.80;;;;;;4983889;28;20294;-66
2024/03/08 00:52:32;;;;;;;2.55;2.35;;;21.50;69.30;;;;;;4984827;28;20228;-64
2024/03/08 00:54:58;;;;;;;2.53;2.22;;;21.50;70.60;;;;;;4976064;28;20201;-64
2024/03/08 00:57:27;;;;;;;2.30;2.10;;;21.50;68.60;;;;;;4979633;28;20200;-65
2024/03/08 00:59:54;;;;;;;2.20;2.00;;;21.50;69.90;;;;;;4976096;28;20546;-67
2024/03/08 01:02:22;;;;;;;2.28;2.08;;;21.40;69.50;;;;;;4981848;28;20207;-67
2024/03/08 01:04:50;;;;;;;2.35;2.15;;;21.40;70.00;;;;;;4979539;28;20255;-65
2024/03/08 01:07:16;;;;;;;3.63;2.75;;;21.30;69.50;;;;;;4974476;28;20408;-65
2024/03/08 01:09:43;;;;;;;1.98;1.77;;;21.80;70.50;;;;;;4979040;28;20197;-66
2024/03/08 01:12:10;;;;;;;2.85;2.65;;;21.30;69.70;;;;;;4981635;28;20232;-64
2024/03/08 01:14:38;;;;;;;3.67;2.28;;;21.40;70.30;;;;;;4977914;28;20285;-67
2024/03/08 01:17:05;;;;;;;2.90;2.60;;;21.40;70.10;;;;;;4974089;28;20221;-66
2024/03/08 01:19:32;;;;;;;2.63;2.42;;;21.30;69.30;;;;;;4983750;28;20219;-66
2024/03/08 01:21:59;;;;;;;2.05;1.85;;;21.30;68.40;;;;;;4981902;28;20197;-66
2024/03/08 01:24:26;;;;;;;3.03;2.72;;;21.40;69.30;;;;;;4968384;28;20776;-66
2024/03/08 01:26:53;;;;;;;2.53;2.17;;;21.30;70.30;;;;;;4976073;28;20193;-65
2024/03/08 01:29:20;;;;;;;2.50;2.30;;;21.20;69.80;;;;;;4980854;28;20208;-64
2024/03/08 01:31:48;;;;;;;2.13;1.77;;;21.30;69.50;;;;;;4981572;28;20220;-65
2024/03/08 01:34:14;;;;;;;2.50;2.30;;;21.30;69.60;;;;;;4980986;28;20204;-65
2024/03/08 01:36:41;;;;;;;2.25;2.05;;;21.20;69.50;;;;;;4970930;28;20200;-66
2024/03/08 01:39:09;;;;;;;2.35;2.15;;;21.20;70.10;;;;;;4986148;28;20197;-66
2024/03/08 01:41:36;;;;;;;2.95;2.75;;;21.40;69.60;;;;;;4982784;28;21453;-66
2024/03/08 01:44:03;;;;;;;2.50;2.30;;;21.20;69.30;;;;;;4983800;28;20205;-64
2024/03/08 01:46:30;;;;;;;2.63;2.42;;;21.30;69.70;;;;;;4979153;28;20228;-64
2024/03/08 01:49:00;;;;;;;2.45;2.25;;;21.10;69.30;;;;;;4986401;28;20208;-66
2024/03/08 01:51:28;;;;;;;2.50;2.30;;;21.20;69.30;;;;;;4975994;28;20228;-65
2024/03/08 01:53:57;;;;;;;2.90;2.38;;;21.20;69.50;;;;;;4979064;28;20287;-65
2024/03/08 01:56:25;;;;;;;2.22;2.03;;;21.40;69.50;;;;;;4980638;28;20208;-66
2024/03/08 01:58:52;;;;;;;2.30;2.10;;;21.20;69.50;;;;;;4981729;28;20287;-65
2024/03/08 02:01:19;;;;;;;2.63;2.42;;;21.20;69.30;;;;;;4980099;28;20653;-65
2024/03/08 02:03:46;;;;;;;2.45;2.25;;;21.30;69.60;;;;;;4981154;28;20204;-65
2024/03/08 02:06:16;;;;;;;2.92;2.67;;;21.20;69.60;;;;;;4982826;28;21163;-64
2024/03/08 02:08:43;;;;;;;2.47;2.28;;;21.10;69.20;;;;;;4982739;28;20288;-66
2024/03/08 02:11:10;;;;;;;2.25;2.05;;;21.10;68.70;;;;;;4988072;28;20751;-65
2024/03/08 02:13:37;;;;;;;2.20;2.00;;;21.10;69.50;;;;;;4978845;28;20208;-66
2024/03/08 02:16:05;;;;;;;2.45;2.25;;;21.10;69.20;;;;;;4979729;28;20573;-65
2024/03/08 02:18:34;;;;;;;2.70;2.50;;;21.00;68.80;;;;;;4979517;28;20205;-67
2024/03/08 02:21:03;;;;;;;2.35;1.83;;;21.00;68.30;;;;;;4971745;28;20645;-65
2024/03/08 02:23:30;;;;;;;2.90;2.35;;;21.00;68.80;;;;;;4978056;28;20193;-65
2024/03/08 02:25:57;;;;;;;3.13;2.08;;;21.10;69.50;;;;;;4983018;28;20208;-65
2024/03/08 02:28:26;;;;;;;2.75;2.55;;;21.00;68.20;;;;;;4978705;28;20546;-66
2024/03/08 02:30:54;;;;;;;2.30;2.10;;;21.30;69.50;;;;;;4985107;28;20290;-65
2024/03/08 02:33:21;;;;;;;2.40;2.20;;;21.00;68.20;;;;;;4985928;28;20311;-66
2024/03/08 02:35:49;;;;;;;2.00;1.88;;;21.40;69.60;;;;;;4982176;28;20208;-65
2024/03/08 02:38:18;;;;;;;2.00;1.90;;;21.00;68.20;;;;;;4979797;28;20211;-66
2024/03/08 02:40:45;;;;;;;2.58;1.95;;;20.90;69.70;;;;;;4981092;28;20809;-65
2024/03/08 02:43:14;;;;;;;2.90;2.30;;;20.90;68.20;;;;;;4982448;28;20224;-65
2024/03/08 02:45:41;;;;;;;2.40;2.20;;;21.20;70.10;;;;;;4981769;28;20574;-64
2024/03/08 02:48:09;;;;;;;2.50;2.30;;;20.90;68.60;;;;;;4983681;28;20993;-64
2024/03/08 02:50:36;;;;;;;2.30;2.10;;;20.90;69.00;;;;;;4986362;28;20234;-65
2024/03/08 02:53:03;;;;;;;2.70;2.50;;;20.80;68.60;;;;;;4980432;28;20221;-65
2024/03/08 02:55:31;;;;;;;3.10;2.80;;;20.90;69.00;;;;;;4980037;28;20205;-64
2024/03/08 02:57:59;;;;;;;2.83;2.50;;;20.90;68.50;;;;;;4984504;28;21545;-66
2024/03/08 03:00:25;;;;;;;2.30;1.92;;;20.70;68.90;;;;;;4973181;28;20200;-65
2024/03/08 03:02:53;;;;;;;2.65;2.05;;;21.00;68.40;;;;;;4977652;28;20215;-65
2024/03/08 03:05:20;;;;;;;2.60;2.40;;;20.90;68.60;;;;;;4981122;28;20291;-65
2024/03/08 03:07:48;;;;;;;2.70;2.50;;;21.00;69.50;;;;;;4977299;28;20205;-66
2024/03/08 03:10:16;;;;;;;2.20;2.00;;;21.30;69.50;;;;;;4981214;28;20216;-65
2024/03/08 03:12:45;;;;;;;2.70;2.50;;;21.00;69.10;;;;;;4986775;28;20248;-67
2024/03/08 03:15:12;;;;;;;2.58;2.38;;;20.90;68.70;;;;;;4983145;28;20416;-64
2024/03/08 03:17:39;;;;;;;2.38;2.17;;;20.90;68.50;;;;;;4985443;28;20200;-67
2024/03/08 03:20:10;;;;;;;2.65;1.98;;;21.20;70.40;;;;;;4982275;28;20307;-66
2024/03/08 03:22:38;;;;;;;2.50;2.30;;;20.90;68.20;;;;;;4982438;28;20674;-64
2024/03/08 03:25:06;;;;;;;2.20;2.00;;;21.30;70.40;;;;;;4984611;28;20645;-66
2024/03/08 03:27:33;;;;;;;2.33;2.13;;;20.80;68.10;;;;;;4984769;28;20205;-65
2024/03/08 03:30:20;;;;;;;2.35;2.15;;;20.80;69.30;;;;;;4974996;28;20205;-65
2024/03/08 03:32:47;;;;;;;2.35;2.15;;;21.50;69.30;;;;;;4987891;28;20689;-66
2024/03/08 03:35:15;;;;;;;2.58;2.38;;;20.70;69.00;;;;;;4988571;28;20288;-66
2024/03/08 03:37:45;;;;;;;3.15;2.47;;;20.80;69.00;;;;;;4985954;28;20290;-67
2024/03/08 03:40:12;;;;;;;2.40;2.20;;;20.80;68.60;;;;;;4982139;28;20592;-66
2024/03/08 03:42:39;;;;;;;2.83;2.63;;;20.80;69.30;;;;;;4984687;28;20201;-65
2024/03/08 03:45:09;;;;;;;2.85;2.65;;;20.80;68.40;;;;;;4989652;28;20489;-65
2024/03/08 03:47:37;;;;;;;2.50;2.30;;;20.80;69.30;;;;;;4987346;28;20360;-66
2024/03/08 03:50:05;;;;;;;2.60;2.40;;;20.80;68.30;;;;;;4981650;28;20438;-67
2024/03/08 03:52:32;;;;;;;2.30;2.10;;;20.80;67.90;;;;;;4986052;28;20886;-65
2024/03/08 03:54:59;;;;;;;2.78;2.58;;;20.80;69.50;;;;;;4987546;28;20201;-66
2024/03/08 03:57:25;;;;;;;2.40;2.20;;;20.80;68.40;;;;;;4986359;28;20209;-65
2024/03/08 03:59:52;;;;;;;2.35;1.90;;;20.80;68.10;;;;;;4978370;28;20208;-66
2024/03/08 04:02:20;;;;;;;2.65;2.45;;;21.30;69.30;;;;;;4983401;28;20208;-64
2024/03/08 04:04:47;;;;;;;2.30;2.10;;;20.90;68.80;;;;;;4982161;28;20219;-65
2024/03/08 04:07:14;;;;;;;2.70;2.50;;;20.70;68.20;;;;;;4983041;28;20201;-65
2024/03/08 04:09:41;;;;;;;2.35;2.15;;;20.90;68.50;;;;;;4978434;28;20193;-66
2024/03/08 04:12:09;;;;;;;2.63;2.42;;;20.60;68.00;;;;;;4985948;28;20217;-65
2024/03/08 04:14:36;;;;;;;2.72;2.40;;;20.70;68.20;;;;;;4986639;28;20752;-67
2024/03/08 04:17:03;;;;;;;2.40;2.20;;;20.90;68.90;;;;;;4983647;28;20395;-64
2024/03/08 04:19:31;;;;;;;3.33;2.58;;;20.80;68.50;;;;;;4981107;28;20198;-67
2024/03/08 04:21:58;;;;;;;2.53;2.33;;;20.80;68.30;;;;;;4984868;28;20207;-64
2024/03/08 04:24:25;;;;;;;2.33;2.13;;;20.80;68.80;;;;;;4985978;28;20201;-67
2024/03/08 04:26:51;;;;;;;2.22;2.00;;;20.70;68.30;;;;;;4987978;28;20205;-65
2024/03/08 04:29:18;;;;;;;2.05;1.85;;;20.70;68.70;;;;;;4985740;28;20197;-65
2024/03/08 04:31:44;;;;;;;2.00;1.80;;;20.60;69.80;;;;;;4982331;28;21114;-64
2024/03/08 04:34:11;;;;;;;3.00;2.80;;;20.70;68.40;;;;;;4989752;28;20220;-65
2024/03/08 04:36:39;;;;;;;2.53;2.33;;;20.70;69.20;;;;;;4986128;28;20568;-64
2024/03/08 04:39:09;;;;;;;2.50;2.30;;;20.70;69.30;;;;;;4981682;28;20197;-65
2024/03/08 04:41:37;;;;;;;2.42;2.22;;;20.70;68.30;;;;;;4983205;28;20251;-64
2024/03/08 04:44:04;;;;;;;2.75;2.47;;;20.70;69.00;;;;;;4984337;28;20209;-66
2024/03/08 04:46:31;;;;;;;2.35;2.15;;;20.90;68.70;;;;;;4978171;28;20224;-66
2024/03/08 04:48:58;;;;;;;2.58;2.15;;;20.50;68.10;;;;;;4987067;28;20200;-64
2024/03/08 04:51:26;;;;;;;2.17;1.98;;;20.60;68.20;;;;;;4978895;28;20217;-64
2024/03/08 04:53:54;;;;;;;2.30;2.10;;;20.70;68.30;;;;;;4982066;28;20220;-68
2024/03/08 04:56:21;;;;;;;2.55;2.35;;;20.80;69.50;;;;;;4985675;28;20671;-64
2024/03/08 04:58:48;;;;;;;2.40;2.20;;;21.20;68.70;;;;;;4980412;28;20193;-64
2024/03/08 05:01:15;;;;;;;2.30;2.10;;;20.60;68.10;;;;;;4968545;28;20201;-64
2024/03/08 05:03:42;;;;;;;2.13;2.03;;;20.50;68.70;;;;;;4981637;28;20296;-65
2024/03/08 05:06:08;;;;;;;3.00;2.75;;;20.50;69.00;;;;;;4978991;28;20196;-66
2024/03/08 05:08:35;;;;;;;3.70;2.25;;;20.60;69.30;;;;;;4978222;28;20204;-65
2024/03/08 05:11:06;;;;;;;3.50;2.08;;;20.80;68.90;;;;;;4979677;28;20201;-66
2024/03/08 05:13:34;;;;;;;2.28;2.08;;;20.70;69.10;;;;;;4984955;28;21154;-66
2024/03/08 05:16:00;;;;;;;2.20;2.00;;;20.60;69.20;;;;;;4982649;28;20209;-65
2024/03/08 05:18:28;;;;;;;2.60;2.40;;;20.70;69.10;;;;;;4986355;28;20201;-66
2024/03/08 05:20:54;;;;;;;2.63;2.42;;;20.80;69.60;;;;;;4979572;28;20205;-66
2024/03/08 05:23:22;;;;;;;2.90;2.70;;;20.60;69.00;;;;;;4980579;28;20225;-65
2024/03/08 05:25:48;;;;;;;2.78;2.38;;;20.70;69.10;;;;;;4985160;28;21149;-65
2024/03/08 05:28:17;;;;;;;2.42;2.22;;;20.60;69.00;;;;;;4990192;28;20574;-67
2024/03/08 05:30:44;;;;;;;3.78;3.47;;;20.50;69.00;;;;;;4982436;28;20586;-66
2024/03/08 05:33:11;;;;;;;2.47;2.28;;;20.50;68.90;;;;;;4983638;28;20227;-67
2024/03/08 05:35:38;;;;;;;2.55;2.35;;;20.60;69.40;;;;;;4977397;28;20196;-67
2024/03/08 05:38:05;;;;;;;2.38;2.15;;;20.60;69.50;;;;;;4986193;28;20200;-65
2024/03/08 05:40:32;;;;;;;2.83;2.63;;;20.40;68.90;;;;;;4983861;28;20205;-66
2024/03/08 05:42:59;;;;;;;2.97;2.78;;;20.70;69.60;;;;;;4985763;28;20850;-65
2024/03/08 05:45:27;;;;;;;2.42;2.13;;;21.00;69.90;;;;;;4980234;28;25254;-65
2024/03/08 05:47:54;;;;;;;2.40;2.20;;;20.60;69.30;;;;;;4973190;28;20209;-65
2024/03/08 05:50:20;;;;;;;2.55;2.35;;;20.50;69.80;;;;;;4980437;28;20596;-66
2024/03/08 05:52:48;;;;;;;2.30;2.10;;;20.60;71.30;;;;;;4984727;28;20212;-64
2024/03/08 05:55:15;;;;;;;2.72;2.53;;;20.70;71.20;;;;;;4979335;28;20280;-66
2024/03/08 05:57:42;;;;;;;2.28;2.08;;;20.50;68.20;;;;;;4982895;28;20646;-65
2024/03/08 06:00:10;;;;;;;3.33;2.85;;;20.60;66.20;;;;;;4976100;28;20205;-65
2024/03/08 06:02:40;;;;;;;2.78;2.50;;;20.60;66.10;;;;;;4983496;28;20676;-66
2024/03/08 06:05:09;;;;;;;2.85;2.60;;;20.60;66.20;;;;;;4985093;28;20615;-65
2024/03/08 06:07:35;;;;;;;3.90;2.58;;;20.60;66.20;;;;;;4982846;28;20203;-65
2024/03/08 06:10:03;;;;;;;2.42;2.22;;;20.60;66.20;;;;;;4981814;28;20201;-64
2024/03/08 06:12:33;;;;;;;2.75;2.28;;;20.60;66.20;;;;;;4978802;28;20864;-64
2024/03/08 06:15:00;;;;;;;3.10;2.80;;;20.60;66.00;;;;;;4980880;28;20212;-66
2024/03/08 06:17:26;;;;;;;3.45;2.70;;;20.60;66.90;;;;;;4978386;28;20204;-65
2024/03/08 06:19:55;;;;;;;2.35;2.15;;;20.50;66.00;;;;;;4981384;28;20486;-65
2024/03/08 06:22:22;;;;;;;2.80;2.55;;;20.60;66.10;;;;;;4979929;28;20196;-67
2024/03/08 06:24:48;;;;;;;2.15;1.95;;;20.50;66.00;;;;;;4982687;28;20665;-66
2024/03/08 06:27:15;;;;;;;3.30;3.00;;;20.50;66.00;;;;;;4986182;28;20193;-64
2024/03/08 06:29:42;;;;;;;2.00;1.90;;;20.60;66.10;;;;;;4979317;28;20581;-64
2024/03/08 06:32:08;;;;;;;3.40;3.10;;;20.50;65.50;;;;;;4981337;28;20204;-65
2024/03/08 06:34:35;;;;;;;2.97;2.72;;;20.50;65.90;;;;;;4980471;28;20271;-66
2024/03/08 06:37:03;;;;;;;2.13;2.00;;;20.60;66.20;;;;;;4980028;28;20208;-66
2024/03/08 06:39:31;;;;;;;2.92;2.25;;;20.50;66.00;;;;;;4978572;28;20204;-65
2024/03/08 06:41:58;;;;;;;2.40;2.15;;;20.50;66.00;;;;;;4981903;28;20193;-65
2024/03/08 06:44:25;;;;;;;2.55;2.10;;;20.60;66.10;;;;;;4979086;28;20207;-65
2024/03/08 06:46:52;;;;;;;2.75;2.55;;;20.50;66.00;;;;;;4971766;28;20410;-65
2024/03/08 06:49:19;;;;;;;2.65;2.05;;;20.30;65.70;;;;;;4969062;28;20673;-64
2024/03/08 06:51:46;;;;;;;2.72;2.53;;;20.50;66.00;;;;;;4976042;28;20194;-66
2024/03/08 06:54:14;;;;;;;3.05;2.70;;;20.50;66.00;;;;;;4978693;28;20227;-64
2024/03/08 06:56:40;;;;;;;3.10;2.45;;;20.50;65.90;;;;;;4981993;28;20204;-65
2024/03/08 06:59:10;;;;;;;3.17;2.90;;;20.50;66.00;;;;;;4979563;28;20216;-66
2024/03/08 07:01:38;;;;;;;2.50;2.30;;;20.60;66.20;;;;;;4972195;28;20204;-67
2024/03/08 07:04:06;;;;;;;3.13;2.83;;;20.50;66.00;;;;;;4977729;28;21466;-66
2024/03/08 07:06:34;;;;;;;2.20;2.00;;;20.50;66.00;;;;;;4980933;28;20208;-65
2024/03/08 07:09:01;;;;;;;3.38;3.08;;;20.50;66.00;;;;;;4976244;28;20343;-66
2024/03/08 07:11:29;;;;;;;3.10;2.80;;;20.40;65.90;;;;;;4979503;28;20224;-65
2024/03/08 07:13:55;;;;;;;3.63;3.10;;;20.50;66.00;;;;;;4977278;28;20716;-67
2024/03/08 07:16:22;;;;;;;2.95;2.25;;;20.50;65.90;;;;;;4973057;28;20201;-66
2024/03/08 07:18:52;;;;;;;2.53;2.33;;;20.50;66.00;;;;;;4980910;28;20197;-66
2024/03/08 07:21:19;;;;;;;2.25;2.05;;;20.50;65.90;;;;;;4979676;28;20197;-67
2024/03/08 07:24:02;;;;;;;2.90;2.70;;;20.70;66.20;;;;;;4981501;28;20195;-68
2024/03/08 07:26:31;;;;;;;3.40;2.85;;;20.50;66.00;;;;;;4974041;28;20205;-67
2024/03/08 07:28:59;;;;;;;2.70;2.50;;;20.20;65.80;;;;;;4979213;28;20220;-66
2024/03/08 07:31:37;;;;;;;2.42;2.22;;;20.20;65.80;;;;;;4975959;28;20196;-67
2024/03/08 07:34:07;;;;;;;3.85;3.13;;;20.50;66.30;;;;;;4977813;28;20220;-66
2024/03/08 07:36:34;;;;;;;2.83;2.53;;;20.40;66.20;;;;;;4978091;28;20223;-66
2024/03/08 07:39:01;;;;;;;3.10;2.15;;;20.50;66.40;;;;;;4984684;28;20323;-67
2024/03/08 07:41:28;;;;;;;2.70;2.50;;;20.50;66.40;;;;;;4985517;28;20549;-66
2024/03/08 07:43:57;;;;;;;2.30;2.10;;;20.50;66.40;;;;;;4983340;28;21120;-64
2024/03/08 07:46:24;;;;;;;2.78;2.58;;;20.60;66.70;;;;;;4985334;28;20196;-68
2024/03/08 07:48:51;;;;;;;7.40;3.47;;;20.40;66.00;;;;;;4972305;28;20287;-67
2024/03/08 07:51:18;;;;;;;3.15;2.85;;;20.60;66.30;;;;;;4973496;28;20201;-71
2024/03/08 07:53:45;;;;;;;2.83;2.63;;;20.60;66.40;;;;;;4982814;28;20216;-65
2024/03/08 07:56:13;;;;;;;3.67;2.60;;;20.40;66.30;;;;;;4982604;28;20197;-65
2024/03/08 07:58:41;;;;;;;3.05;2.47;;;20.40;66.50;;;;;;4982571;28;20678;-64
2024/03/08 08:01:16;;;;;;;4.00;2.20;;;20.70;66.80;;;;;;4970960;28;20197;-67
2024/03/08 08:03:43;;;;;;;6.10;2.50;;;20.70;66.80;;;;;;4979636;28;20200;-66
2024/03/08 08:06:09;;;;;;;7.80;2.63;;;20.70;66.60;;;;;;4979337;28;20216;-64
2024/03/08 08:08:36;;;;;;;4.03;2.65;;;20.70;66.60;;;;;;4976579;28;20640;-64
2024/03/08 08:11:03;;;;;;;2.80;2.60;;;20.80;66.70;;;;;;4977929;28;20209;-66
2024/03/08 08:13:32;;;;;;;3.45;2.67;;;20.80;66.60;;;;;;4983470;28;20307;-65
2024/03/08 08:15:59;;;;;;;3.03;2.78;;;21.00;66.80;;;;;;4980052;28;20292;-63
2024/03/08 08:18:27;;;;;;;3.22;2.92;;;20.80;66.50;;;;;;4981018;28;20216;-62
2024/03/08 08:20:53;;;;;;;2.80;2.40;;;21.00;66.80;;;;;;4981353;28;20228;-65
2024/03/08 08:23:20;;;;;;;2.67;2.47;;;20.80;66.40;;;;;;4987275;28;20212;-64
2024/03/08 08:25:49;;;;;;;3.83;3.42;;;20.90;66.40;;;;;;4979474;28;21104;-66
2024/03/08 08:28:17;;;;;;;2.95;2.67;;;20.90;66.40;;;;;;4984813;28;20212;-65
2024/03/08 08:30:44;;;;;;;2.95;2.75;;;20.60;65.90;;;;;;4977819;28;20226;-65
2024/03/08 08:33:11;;;;;;;3.38;3.08;;;20.90;66.20;;;;;;4978064;28;20209;-63
2024/03/08 08:35:39;;;;;;;3.17;2.67;;;20.90;66.10;;;;;;4981331;28;20732;-63
2024/03/08 08:38:07;;;;;;;2.83;2.55;;;20.90;66.10;;;;;;4985232;28;20208;-67
2024/03/08 08:40:33;;;;;;;3.45;2.80;;;20.90;66.10;;;;;;4982123;28;20661;-64
2024/03/08 08:43:01;;;;;;;3.20;3.00;;;20.90;66.00;;;;;;4974977;28;20208;-63
2024/03/08 08:45:28;;;;;;;2.45;2.25;;;20.90;66.00;;;;;;4986305;28;20514;-65
2024/03/08 08:47:55;;;;;;;3.25;2.95;;;20.90;66.00;;;;;;4976214;28;20192;-66
2024/03/08 08:50:23;;;;;;;3.38;3.08;;;20.60;65.60;;;;;;4978448;28;20204;-66
2024/03/08 08:52:51;;;;;;;2.67;2.47;;;20.90;65.90;;;;;;4983142;28;20753;-63
2024/03/08 08:55:20;;;;;;;2.85;2.65;;;20.90;65.90;;;;;;4977932;28;20489;-65
2024/03/08 08:57:48;;;;;;;3.70;2.70;;;21.10;66.00;;;;;;4979682;28;20471;-65
2024/03/08 09:00:15;;;;;;;3.88;3.58;;;20.90;65.80;;;;;;4976671;28;20456;-63
2024/03/08 09:02:42;;;;;;;4.70;2.75;;;21.00;65.80;;;;;;4981456;28;20208;-63
2024/03/08 09:05:09;;;;;;;4.10;3.00;;;21.00;65.60;;;;;;4982362;28;20208;-63
2024/03/08 09:07:37;;;;;;;3.65;3.30;;;20.90;65.30;;;;;;4966813;28;20209;-73
2024/03/08 09:10:09;;;;;;;3.80;3.50;;;21.00;65.50;;;;;;4702209;28;20751;-69
2024/03/08 09:12:38;;;;;;;3.60;3.30;;;21.00;65.70;;;;;;4667529;28;21435;-73
2024/03/08 09:15:08;;;;;;;4.43;3.45;;;21.00;66.30;;;;;;4694554;28;21088;-67
2024/03/08 09:17:35;;;;;;;3.07;2.77;;;21.00;66.00;;;;;;4705336;28;20204;-66
2024/03/08 09:20:04;;;;;;;3.20;2.93;;;21.10;66.40;;;;;;4698031;28;23412;-67
2024/03/08 09:22:31;;;;;;;3.70;3.17;;;21.10;66.30;;;;;;4698952;28;23415;-67
2024/03/08 09:24:58;;;;;;;3.90;3.50;;;21.10;66.30;;;;;;4695972;28;21880;-70
2024/03/08 09:27:27;;;;;;;3.20;2.87;;;21.10;66.40;;;;;;4701169;28;21203;-69
2024/03/08 09:29:54;;;;;;;3.63;3.30;;;21.40;66.80;;;;;;4685369;28;23396;-69
2024/03/08 09:32:22;;;;;;;3.37;3.10;;;21.20;66.60;;;;;;4694890;28;20899;-73
2024/03/08 09:34:50;;;;;;;2.67;2.47;;;21.20;66.60;;;;;;4696244;28;22197;-75
2024/03/08 09:37:17;;;;;;;2.60;2.40;;;21.20;66.70;;;;;;4715926;28;21159;-76
2024/03/08 09:39:45;;;;;;;2.83;2.60;;;21.70;67.30;;;;;;4715142;28;20467;-75
2024/03/08 09:42:14;;;;;;;3.43;2.67;;;21.30;66.70;;;;;;4696536;28;26801;-71
2024/03/08 09:44:46;;;;;;;3.93;3.00;;;21.30;66.60;;;;;;4730283;28;21623;-69
2024/03/08 09:47:14;;;;;;;2.50;2.30;;;21.30;66.70;;;;;;4801498;28;20520;-71
2024/03/08 09:49:43;;;;;;;2.70;2.50;;;21.30;66.50;;;;;;4791317;28;20465;-70
2024/03/08 09:52:10;;;;;;;3.20;3.00;;;21.30;66.50;;;;;;4834247;28;20467;-64
2024/03/08 09:54:37;;;;;;;3.90;2.83;;;21.30;66.50;;;;;;4979127;28;20484;-63
2024/03/08 09:57:05;;;;;;;6.63;3.00;;;21.40;66.80;;;;;;4979627;28;20556;-64
2024/03/08 09:59:44;;;;;;;3.47;3.17;;;21.40;66.70;;;;;;4977836;28;20460;-66
2024/03/08 10:02:15;;;;;;;5.30;3.20;;;21.40;66.60;;;;;;4981511;28;20458;-64
2024/03/08 10:04:43;;;;;;;4.07;3.40;;;21.40;66.60;;;;;;4982158;28;20590;-63
2024/03/08 10:07:10;;;;;;;3.50;3.20;;;21.40;66.40;;;;;;4984550;28;21075;-64
2024/03/08 10:09:36;;;;;;;3.60;3.20;;;21.40;66.40;;;;;;4980187;28;20468;-64
2024/03/08 10:12:03;;;;;;;3.60;3.30;;;21.40;66.30;;;;;;4985218;28;20472;-64
2024/03/08 10:14:30;;;;;;;3.30;2.70;;;21.40;66.10;;;;;;4984987;28;20487;-65
2024/03/08 10:16:59;;;;;;;2.90;2.53;;;21.40;66.00;;;;;;4982074;28;20491;-64
2024/03/08 10:19:29;;;;;;;3.90;3.60;;;21.20;65.70;;;;;;4984346;28;20962;-64
2024/03/08 10:21:58;;;;;;;2.90;2.70;;;21.40;65.80;;;;;;4981734;28;20855;-65
2024/03/08 10:24:25;;;;;;;3.80;2.93;;;21.20;65.40;;;;;;4980206;28;20468;-64
2024/03/08 10:26:54;;;;;;;3.40;3.10;;;21.80;65.80;;;;;;4978355;28;20720;-67
2024/03/08 10:29:20;;;;;;;3.00;2.80;;;21.40;65.50;;;;;;4983819;28;20557;-64
2024/03/08 10:31:47;;;;;;;3.10;2.80;;;21.40;65.40;;;;;;4979090;28;20835;-64
2024/03/08 10:34:14;;;;;;;4.10;3.70;;;21.40;65.40;;;;;;4986649;28;20224;-65
2024/03/08 10:36:42;;;;;;;3.70;3.40;;;21.30;65.10;;;;;;4984526;28;20552;-64
2024/03/08 10:39:21;;;;;;;3.30;3.00;;;21.50;65.10;;;;;;4981305;28;20487;-64
2024/03/08 10:41:53;;;;;;;3.10;2.70;;;21.40;64.80;;;;;;4978060;28;20204;-64
2024/03/08 10:44:36;;;;;;;3.63;2.90;;;21.50;65.80;;;;;;4982283;28;20463;-70
2024/03/08 10:47:09;;;;;;;3.47;3.10;;;21.50;65.00;;;;;;4981771;28;20470;-69
2024/03/08 10:49:45;;;;;;;3.83;2.97;;;21.50;65.00;;;;;;4980350;28;20814;-78
2024/03/08 10:52:15;;;;;;;2.72;2.45;;;21.50;65.10;;;;;;4972716;28;22725;-70
2024/03/08 10:54:43;;;;;;;3.70;3.40;;;21.50;65.30;;;;;;4977386;28;20251;-74
2024/03/08 10:57:10;;;;;;;3.47;2.53;;;21.50;65.20;;;;;;4970366;28;20579;-76
2024/03/08 10:59:37;;;;;;;3.80;3.50;;;21.50;65.20;;;;;;4974679;28;20208;-67
2024/03/08 11:02:05;;;;;;;2.83;2.50;;;21.50;65.30;;;;;;4971888;28;20604;-67
2024/03/08 11:04:33;;;;;;;5.18;3.17;;;21.50;65.30;;;;;;4981270;28;21139;-63
2024/03/08 11:07:06;;;;;;;3.23;2.57;;;21.60;65.40;;;;;;4969710;28;20857;-67
2024/03/08 11:09:37;;;;;;;2.73;2.53;;;21.80;65.60;;;;;;4978634;28;20458;-66
2024/03/08 11:12:20;;;;;;;3.53;3.22;;;21.60;65.50;;;;;;4979061;28;21022;-65
2024/03/08 11:14:49;;;;;;;3.03;2.83;;;21.70;65.50;;;;;;4969704;28;20231;-76
2024/03/08 11:17:17;;;;;;;3.60;3.30;;;21.70;65.50;;;;;;4977942;28;20495;-69
2024/03/08 11:19:47;;;;;;;6.23;4.03;;;22.00;65.80;;;;;;4973276;28;20456;-69
2024/03/08 11:22:23;;;;;;;3.20;2.90;;;21.70;65.30;;;;;;4979049;28;20466;-72
2024/03/08 11:24:51;;;;;;;3.33;3.03;;;21.60;65.10;;;;;;4975154;28;20587;-72
2024/03/08 11:27:20;;;;;;;3.70;3.20;;;21.80;65.30;;;;;;4984045;28;20460;-69
2024/03/08 11:30:00;;;;;;;3.40;3.00;;;22.10;65.70;;;;;;4975947;28;20467;-79
2024/03/08 11:32:30;;;;;;;3.70;3.30;;;21.80;65.30;;;;;;4978813;28;20478;-74
2024/03/08 11:34:57;;;;;;;3.17;2.97;;;21.80;65.30;;;;;;4980079;28;21053;-66
2024/03/08 11:37:24;;;;;;;3.00;2.70;;;21.90;65.40;;;;;;4982312;28;20472;-66
2024/03/08 11:39:58;;;;;;;3.63;3.33;;;21.80;65.40;;;;;;4975460;28;20547;-68
2024/03/08 11:42:26;;;;;;;3.30;3.10;;;21.90;65.40;;;;;;4981031;28;20466;-68
2024/03/08 11:44:54;;;;;;;3.00;2.80;;;21.90;65.10;;;;;;4981086;28;20515;-67
2024/03/08 11:47:21;;;;;;;3.10;2.90;;;21.90;65.10;;;;;;4984854;28;20464;-66
2024/03/08 11:49:48;;;;;;;3.53;3.00;;;21.90;65.30;;;;;;4977714;28;20470;-66
2024/03/08 11:52:16;;;;;;;3.80;3.47;;;21.90;65.00;;;;;;4974720;28;20607;-67
2024/03/08 11:54:44;;;;;;;4.00;3.50;;;21.90;65.00;;;;;;4982348;28;20483;-65
2024/03/08 11:57:12;;;;;;;3.60;3.30;;;21.90;65.60;;;;;;4977237;28;20891;-64
2024/03/08 11:59:39;;;;;;;4.40;3.40;;;21.90;64.80;;;;;;4984437;28;20475;-72
2024/03/08 12:02:10;;;;;;;4.50;4.10;;;21.90;64.80;;;;;;4982145;28;20468;-65
2024/03/08 12:04:36;;;;;;;3.20;2.90;;;21.90;64.90;;;;;;4984900;28;20482;-66
2024/03/08 12:07:08;;;;;;;3.53;2.90;;;22.00;65.00;;;;;;4985127;28;20460;-67
2024/03/08 12:09:36;;;;;;;4.13;3.13;;;22.00;65.00;;;;;;4987965;28;20463;-67
2024/03/08 12:12:03;;;;;;;3.73;2.87;;;22.00;64.80;;;;;;4982534;28;20895;-66
2024/03/08 12:14:31;;;;;;;3.70;3.30;;;21.90;64.60;;;;;;4985699;28;20475;-68
2024/03/08 12:17:00;;;;;;;4.50;3.33;;;22.00;64.90;;;;;;4987538;28;20487;-66
2024/03/08 12:19:27;;;;;;;3.60;3.30;;;22.10;64.90;;;;;;4987994;28;20475;-66
2024/03/08 12:21:55;;;;;;;3.30;3.00;;;22.00;64.80;;;;;;4985383;28;20558;-74
2024/03/08 12:24:21;;;;;;;4.07;3.40;;;22.00;64.70;;;;;;4987288;28;20468;-69
2024/03/08 12:26:49;;;;;;;2.63;2.33;;;22.00;64.90;;;;;;4986186;28;20494;-71
2024/03/08 12:29:19;;;;;;;3.43;3.13;;;22.00;64.80;;;;;;4987681;28;20463;-69
2024/03/08 12:31:48;;;;;;;4.60;3.30;;;22.00;64.80;;;;;;4985151;28;20482;-72
2024/03/08 12:34:15;;;;;;;4.80;2.87;;;22.00;64.70;;;;;;4983903;28;20468;-67
2024/03/08 12:36:48;;;;;;;3.17;2.87;;;22.10;65.00;;;;;;4984761;28;21212;-66
2024/03/08 12:39:17;;;;;;;3.70;3.43;;;22.00;64.80;;;;;;4985173;28;20466;-67
2024/03/08 12:41:44;;;;;;;3.33;3.03;;;22.00;64.70;;;;;;4988556;28;20938;-68
2024/03/08 12:44:12;;;;;;;2.77;2.57;;;22.00;64.90;;;;;;4988572;28;20986;-66
2024/03/08 12:46:41;;;;;;;3.20;2.90;;;21.80;64.60;;;;;;4977825;28;20971;-66
2024/03/08 12:49:11;;;;;;;3.30;2.93;;;22.00;64.80;;;;;;4983440;28;20470;-68
2024/03/08 12:51:38;;;;;;;3.43;3.13;;;22.30;65.20;;;;;;4983301;28;20491;-65